Terminal Aerodrome Forecast
Issued by NWS Upton, NY

Home | Current Version | Previous Version | Text Only | Print | Product List | Glossary On
Versions: 1 2 3 4 5 6 7 8 9 10 11 12 13 14 15 16 17 18 19 20 21 22 23 24 25 26 27 28 29 30
000
FTUS41 KOKX 021700 RRA
TAFEWR
TAF
KEWR 021742Z 0218/0324 31019G31KT P6SM SCT040
     FM022200 31014G21KT P6SM SCT040
     FM030100 31012KT P6SM FEW040
     FM030600 31006KT P6SM SCT250
     FM031400 VRB05KT P6SM FEW015 SCT150
     FM031700 16006KT P6SM SCT020 BKN120
     FM032200 16008KT 6SM -SN BKN025 OVC060=

USA.gov is the U.S. government's official web portal to all federal, state and local government web resources and services.